Impacts TAF Board INFO
FOR SITUATIONAL AWARENESS. NOT TO BE USED FOR FLIGHT PLANNING PURPOSES.
IDs:

KSTC - St Cloud Rgnl, MN, US

Issued at 0520 UTC 21 Oct 2017
Updated at 0838 UTC 21 Oct 2017
Potential Impact None Slight Moderate High
Time<<21/21Z 21/22Z 21/23Z 22/00Z 22/01Z 22/02Z 22/03Z 22/04Z 22/05Z 22/06Z 22/07Z 22/08Z 22/09Z>>
Type PRVL PRVL PRVL PRVL PRVL PRVL PRVL PRVL PRVL
VIS 6 6 6 6 6 6 6 6 6
CIG 20 20 20 20 20 20 20 20 20
Cover OVC OVC OVC OVC OVC OVC OVC OVC OVC
FltCat MVFR MVFR MVFR MVFR MVFR MVFR MVFR MVFR MVFR
WX -SHRA -SHRA -SHRA -SHRA -SHRA -SHRA -SHRA -SHRA -SHRA
WDir 250 250 250 250 250 250 250 250 250
WSpd 10 10 10 10 10 10 10 10 10
WGst -- -- -- -- -- -- -- -- --

Raw TAF
KSTC 210520Z 2106/2206 16017G26KT P6SM BKN100 WS020/18050KT
  FM211100 17015G22KT P6SM VCSH OVC045
  FM211400 17014G21KT P6SM OVC025
  FM211800 18012KT 6SM -RA OVC015
  FM212100 25010KT 6SM -SHRA OVC020


METAR Board
Radar Display
Forecast Discussion

FOR SITUATIONAL AWARENESS. NOT TO BE USED FOR FLIGHT PLANNING PURPOSES.